createdAt,value
2023-02-16T00:00:47.145Z,93.23
2023-02-16T00:03:34.798Z,93.32
2023-02-16T00:06:02.578Z,93.02
2023-02-16T00:08:30.383Z,93.01
2023-02-16T00:11:17.159Z,93.14
2023-02-16T00:13:44.985Z,93.13
2023-02-16T00:16:21.650Z,92.71
2023-02-16T00:18:49.873Z,93.02
2023-02-16T00:21:18.853Z,92.95
2023-02-16T00:23:48.483Z,92.84
2023-02-16T00:26:25.485Z,92.97
2023-02-16T00:28:58.584Z,93.11
2023-02-16T00:31:37.827Z,93.19
2023-02-16T00:34:41.437Z,93.18
2023-02-16T00:37:12.127Z,93.25
2023-02-16T00:39:42.030Z,93.18
2023-02-16T00:42:20.774Z,93.03
2023-02-16T00:44:51.642Z,93.20
2023-02-16T01:08:37.599Z,93.33
2023-02-16T01:11:07.581Z,93.28
2023-02-16T01:13:50.798Z,93.34
2023-02-16T01:16:22.262Z,93.22
2023-02-16T01:18:50.976Z,93.29
2023-02-16T01:21:24.239Z,93.05
2023-02-16T01:23:53.732Z,93.16
2023-02-16T01:26:21.916Z,93.17
2023-02-16T01:28:49.937Z,93.12
2023-02-16T01:31:18.273Z,92.72
2023-02-16T01:33:46.092Z,92.59
2023-02-16T01:36:33.223Z,92.15
2023-02-16T01:39:01.730Z,92.06
2023-02-16T01:41:46.324Z,92.16
2023-02-16T01:44:17.942Z,91.94
2023-02-16T01:47:01.408Z,92.10
2023-02-16T01:49:29.184Z,91.95
2023-02-16T01:52:00.256Z,92.07
2023-02-16T01:54:44.570Z,91.97
2023-02-16T01:57:27.484Z,91.91
2023-02-16T01:59:55.167Z,91.89
2023-02-16T02:02:28.970Z,91.68
2023-02-16T02:05:34.541Z,91.75
2023-02-16T02:08:36.373Z,92.01
2023-02-16T02:11:11.812Z,92.28
2023-02-16T02:13:47.274Z,92.13
2023-02-16T02:16:19.417Z,92.28
2023-02-16T02:18:48.279Z,92.06
2023-02-16T02:22:11.884Z,92.13
2023-02-16T02:24:58.681Z,92.45
2023-02-16T02:27:32.576Z,92.52
2023-02-16T02:30:27.514Z,92.64
2023-02-16T02:33:26.754Z,92.92
2023-02-16T02:36:16.169Z,92.99
2023-02-16T02:39:04.184Z,92.48
2023-02-16T02:42:02.863Z,92.56
2023-02-16T02:44:37.845Z,92.64
2023-02-16T02:47:05.867Z,92.55
2023-02-16T02:49:33.888Z,92.35
2023-02-16T02:52:02.210Z,92.43
2023-02-16T02:54:52.369Z,92.34
2023-02-16T02:57:58.234Z,92.37
2023-02-16T03:00:41.290Z,92.25
2023-02-16T03:03:27.656Z,92.23
2023-02-16T03:06:01.814Z,92.03
2023-02-16T03:08:33.939Z,91.83
2023-02-16T03:11:29.899Z,91.84
2023-02-16T03:14:02.354Z,91.96
2023-02-16T03:16:39.547Z,92.02
2023-02-16T03:19:28.986Z,92.04
2023-02-16T03:22:15.728Z,92.74
2023-02-16T03:25:02.954Z,92.44
2023-02-16T03:27:54.759Z,91.80
2023-02-16T03:30:24.764Z,92.25
2023-02-16T03:32:53.354Z,92.15
2023-02-16T03:35:21.620Z,92.24
2023-02-16T03:37:49.433Z,91.99
2023-02-16T03:40:30.135Z,92.11
2023-02-16T03:43:01.279Z,92.06
2023-02-16T03:45:29.969Z,92.15
2023-02-16T03:47:57.852Z,92.29
2023-02-16T03:50:27.106Z,92.47
2023-02-16T03:53:07.858Z,92.14
2023-02-16T03:55:38.485Z,92.16
2023-02-16T03:58:09.319Z,91.86
2023-02-16T04:00:37.583Z,92.22
2023-02-16T04:03:06.792Z,92.07
2023-02-16T04:05:34.859Z,92.03
2023-02-16T04:08:03.204Z,91.92
2023-02-16T04:10:31.068Z,91.98
2023-02-16T04:12:58.841Z,91.94
2023-02-16T04:15:29.460Z,92.59
2023-02-16T04:17:57.974Z,92.46
2023-02-16T04:20:29.052Z,92.62
2023-02-16T04:22:57.099Z,92.68
2023-02-16T04:25:25.897Z,92.62
2023-02-16T04:27:54.179Z,92.36
2023-02-16T04:30:26.436Z,92.59
2023-02-16T04:32:54.876Z,92.37
2023-02-16T04:35:23.274Z,92.16
2023-02-16T04:37:51.000Z,92.24
2023-02-16T04:40:19.970Z,92.12
2023-02-16T04:42:47.798Z,92.20
2023-02-16T04:45:15.899Z,91.80
2023-02-16T04:47:43.727Z,92.12
2023-02-16T04:50:11.994Z,92.04
2023-02-16T04:52:40.532Z,91.85
2023-02-16T04:55:10.742Z,91.87
2023-02-16T04:57:39.712Z,92.04
2023-02-16T05:00:09.409Z,91.96
2023-02-16T05:02:37.208Z,91.98
2023-02-16T05:05:05.124Z,92.09
2023-02-16T05:07:32.973Z,91.90
2023-02-16T05:10:00.697Z,91.74
2023-02-16T05:12:57.450Z,91.78
2023-02-16T05:15:25.184Z,91.68
2023-02-16T05:17:52.989Z,91.76
2023-02-16T05:20:40.891Z,91.75
2023-02-16T05:23:08.770Z,91.92
2023-02-16T05:25:36.481Z,91.68
2023-02-16T05:28:04.625Z,91.71
2023-02-16T05:30:33.997Z,91.95
2023-02-16T05:33:01.722Z,92.22
2023-02-16T05:35:29.473Z,92.17
2023-02-16T05:37:57.968Z,92.52
2023-02-16T05:40:25.758Z,92.32
2023-02-16T05:42:54.947Z,92.27
2023-02-16T05:45:22.806Z,92.16
2023-02-16T05:47:51.028Z,92.79
2023-02-16T05:50:18.891Z,93.27
2023-02-16T05:52:46.671Z,93.21
2023-02-16T05:55:14.386Z,93.30
2023-02-16T05:57:42.288Z,93.32
2023-02-16T06:00:10.740Z,93.08
2023-02-16T06:02:38.590Z,93.10
2023-02-16T06:05:06.894Z,93.50
2023-02-16T06:07:34.677Z,93.09
2023-02-16T06:10:02.959Z,93.13
2023-02-16T06:12:32.375Z,93.22
2023-02-16T06:15:01.127Z,93.42
2023-02-16T06:17:29.260Z,93.40
2023-02-16T06:19:57.073Z,93.43
2023-02-16T06:22:24.784Z,93.21
2023-02-16T06:24:52.602Z,93.65
2023-02-16T06:27:20.425Z,93.41
2023-02-16T06:29:48.287Z,93.22
2023-02-16T06:32:16.115Z,93.39
2023-02-16T06:34:43.955Z,93.32
2023-02-16T06:37:12.251Z,93.55
2023-02-16T06:39:39.994Z,93.49
2023-02-16T06:42:07.807Z,93.41
2023-02-16T06:44:37.371Z,93.49
2023-02-16T06:47:05.168Z,93.46
2023-02-16T06:49:33.103Z,93.38
2023-02-16T06:52:01.400Z,93.20
2023-02-16T06:54:29.287Z,93.45
2023-02-16T06:56:57.193Z,93.48
2023-02-16T06:59:24.963Z,93.34
2023-02-16T07:01:52.785Z,93.26
2023-02-16T07:04:21.618Z,93.20
2023-02-16T07:06:49.328Z,93.14
2023-02-16T07:09:19.728Z,92.90
2023-02-16T07:11:49.369Z,93.10
2023-02-16T07:14:18.071Z,93.23
2023-02-16T07:16:45.973Z,92.93
2023-02-16T07:19:14.097Z,93.10
2023-02-16T07:21:42.117Z,92.80
2023-02-16T07:24:09.915Z,92.99
2023-02-16T07:26:38.819Z,92.71
2023-02-16T07:29:06.577Z,92.67
2023-02-16T07:31:34.393Z,92.61
2023-02-16T07:34:02.195Z,92.47
2023-02-16T07:36:30.021Z,92.31
2023-02-16T07:38:57.758Z,92.17
2023-02-16T07:41:25.535Z,92.36
2023-02-16T07:43:54.724Z,91.84
2023-02-16T07:46:22.606Z,91.66
2023-02-16T07:48:51.051Z,91.39
2023-02-16T07:51:30.747Z,91.27
2023-02-16T07:54:00.453Z,90.81
2023-02-16T07:56:31.088Z,91.16
2023-02-16T07:59:00.685Z,91.00
2023-02-16T08:01:30.031Z,91.02
2023-02-16T08:03:58.415Z,90.07
2023-02-16T08:06:26.317Z,89.39
2023-02-16T08:08:54.297Z,89.13
2023-02-16T08:11:24.497Z,88.06
2023-02-16T08:13:52.566Z,87.61
2023-02-16T08:16:25.681Z,87.26
2023-02-16T08:18:56.322Z,86.33
2023-02-16T08:21:27.695Z,84.93
2023-02-16T08:23:58.645Z,84.92
2023-02-16T08:26:34.738Z,83.12
2023-02-16T08:29:03.246Z,84.26
2023-02-16T08:31:32.618Z,81.98
2023-02-16T08:34:02.976Z,81.37
2023-02-16T08:36:34.644Z,81.37
2023-02-16T08:39:20.466Z,81.40
2023-02-16T08:41:50.012Z,78.86
2023-02-16T08:44:19.946Z,80.84
2023-02-16T08:46:49.504Z,80.10
2023-02-16T08:49:20.129Z,80.14
2023-02-16T08:51:54.816Z,79.86
2023-02-16T08:54:29.984Z,78.33
2023-02-16T08:56:59.804Z,79.22
2023-02-16T08:59:28.925Z,77.99
2023-02-16T09:01:59.216Z,77.94
2023-02-16T09:04:29.640Z,77.26
2023-02-16T09:06:58.595Z,75.98
2023-02-16T09:09:27.142Z,75.49
2023-02-16T09:11:55.064Z,74.36
2023-02-16T09:14:23.280Z,72.90
2023-02-16T09:16:51.114Z,72.18
2023-02-16T09:19:21.273Z,72.27
2023-02-16T09:21:51.251Z,73.38
2023-02-16T09:24:19.379Z,73.16
2023-02-16T09:26:47.178Z,72.04
2023-02-16T09:29:15.306Z,72.17
2023-02-16T09:31:44.451Z,72.08
2023-02-16T09:34:19.495Z,71.74
2023-02-16T09:36:47.877Z,71.32
2023-02-16T09:39:17.028Z,71.42
2023-02-16T09:41:58.347Z,70.63
2023-02-16T09:44:56.555Z,71.11
2023-02-16T09:47:33.721Z,69.89
2023-02-16T09:50:43.617Z,70.38
2023-02-16T09:53:29.228Z,70.02
2023-02-16T09:56:22.706Z,68.22
2023-02-16T09:58:57.610Z,67.39
2023-02-16T10:01:37.358Z,65.37
2023-02-16T10:04:23.830Z,64.82
2023-02-16T10:07:04.007Z,65.73
2023-02-16T10:09:33.396Z,64.68
2023-02-16T10:12:13.269Z,62.76
2023-02-16T10:14:46.965Z,63.49
2023-02-16T10:17:35.943Z,62.49
2023-02-16T10:20:06.204Z,62.81
2023-02-16T10:22:40.773Z,62.57
2023-02-16T10:25:17.058Z,59.65
2023-02-16T10:27:51.381Z,59.94
2023-02-16T10:30:21.579Z,60.80
2023-02-16T10:32:49.578Z,59.17
2023-02-16T10:35:26.175Z,58.59
2023-02-16T10:37:56.935Z,58.64
2023-02-16T10:40:27.807Z,58.15
2023-02-16T10:43:24.952Z,58.28
2023-02-16T10:45:56.453Z,57.29
2023-02-16T10:48:24.533Z,57.07
2023-02-16T10:50:55.120Z,56.29
2023-02-16T10:53:32.222Z,55.39
2023-02-16T10:56:00.177Z,56.24
2023-02-16T10:58:38.688Z,55.28
2023-02-16T11:01:22.343Z,54.52
2023-02-16T11:03:51.965Z,54.99
2023-02-16T11:06:23.029Z,54.38
2023-02-16T11:08:56.604Z,54.08
2023-02-16T11:11:26.412Z,53.75
2023-02-16T11:14:03.335Z,54.67
2023-02-16T11:16:31.877Z,52.62
2023-02-16T11:19:18.558Z,53.98
2023-02-16T11:21:48.215Z,52.94
2023-02-16T11:24:36.896Z,51.74
2023-02-16T11:27:06.830Z,52.88
2023-02-16T11:29:35.493Z,51.91
2023-02-16T11:32:09.053Z,53.37
2023-02-16T11:34:42.580Z,52.94
2023-02-16T11:37:30.993Z,53.00
2023-02-16T11:40:17.594Z,53.52
2023-02-16T11:42:48.352Z,52.91
2023-02-16T11:45:30.923Z,52.71
2023-02-16T11:48:07.306Z,52.78
2023-02-16T11:50:38.594Z,53.12
2023-02-16T11:53:31.470Z,52.49
2023-02-16T11:56:33.465Z,53.53
2023-02-16T11:59:07.296Z,54.17
2023-02-16T12:02:30.544Z,54.36
2023-02-16T12:05:19.784Z,53.91
2023-02-16T12:08:09.325Z,53.36
2023-02-16T12:10:56.374Z,54.01
2023-02-16T12:13:59.561Z,53.51
2023-02-16T12:16:43.907Z,53.97
2023-02-16T12:19:19.092Z,54.38
2023-02-16T12:21:56.705Z,53.39
2023-02-16T12:24:37.249Z,54.24
2023-02-16T12:27:22.088Z,53.96
2023-02-16T12:29:53.897Z,53.72
2023-02-16T12:32:41.185Z,54.32
2023-02-16T12:35:21.955Z,54.04
2023-02-16T12:38:16.503Z,54.34
2023-02-16T12:40:58.106Z,55.43
2023-02-16T12:43:37.260Z,55.50
2023-02-16T12:46:19.578Z,55.07
2023-02-16T12:49:05.184Z,55.64
2023-02-16T12:51:53.794Z,55.57
2023-02-16T12:54:29.933Z,55.50
2023-02-16T12:57:07.172Z,56.09
2023-02-16T12:59:49.680Z,56.23
2023-02-16T13:02:52.778Z,56.49
2023-02-16T13:05:32.629Z,57.06
2023-02-16T13:08:12.546Z,56.30
2023-02-16T13:10:46.179Z,56.72
2023-02-16T13:13:18.337Z,57.61
2023-02-16T13:16:29.146Z,57.24
2023-02-16T13:18:58.547Z,57.91
2023-02-16T13:21:51.890Z,58.05
2023-02-16T13:24:44.557Z,58.85
2023-02-16T13:27:18.396Z,59.11
2023-02-16T13:30:05.895Z,59.10
2023-02-16T13:32:58.960Z,59.93
2023-02-16T13:36:14.410Z,60.75
2023-02-16T13:39:06.840Z,61.75
2023-02-16T13:41:56.307Z,62.01
2023-02-16T13:44:28.187Z,62.26
2023-02-16T13:46:56.775Z,62.87
2023-02-16T13:49:42.970Z,63.08
2023-02-16T13:52:28.975Z,63.20
2023-02-16T13:54:58.830Z,63.49
2023-02-16T13:57:52.072Z,63.86
2023-02-16T14:00:33.746Z,63.52
2023-02-16T14:03:32.007Z,63.65
2023-02-16T14:06:38.131Z,64.24
2023-02-16T14:09:12.028Z,65.13
2023-02-16T14:11:53.080Z,64.89
2023-02-16T14:14:42.998Z,65.47
2023-02-16T14:17:19.787Z,65.42
2023-02-16T14:20:09.218Z,65.43
2023-02-16T14:22:43.395Z,65.72
2023-02-16T14:25:21.091Z,66.29
2023-02-16T14:27:54.041Z,66.25
2023-02-16T14:30:21.844Z,66.91
2023-02-16T14:32:57.598Z,66.96
2023-02-16T14:35:28.938Z,66.96
2023-02-16T14:37:59.965Z,67.48
2023-02-16T14:40:52.626Z,67.80
2023-02-16T14:43:25.867Z,67.84
2023-02-16T14:46:08.041Z,67.79
2023-02-16T14:49:03.821Z,67.97
2023-02-16T14:51:43.944Z,68.03
2023-02-16T14:54:31.000Z,68.21
2023-02-16T14:57:04.384Z,68.69
2023-02-16T14:59:46.191Z,68.52
2023-02-16T15:02:35.743Z,68.70
2023-02-16T15:05:25.557Z,69.46
2023-02-16T15:08:18.451Z,69.48
2023-02-16T15:10:46.565Z,69.67
2023-02-16T15:13:22.062Z,69.90
2023-02-16T15:15:56.006Z,70.27
2023-02-16T15:18:34.280Z,70.39
2023-02-16T15:21:02.579Z,70.95
2023-02-16T15:23:34.538Z,70.58
2023-02-16T15:26:15.975Z,70.71
2023-02-16T15:28:52.105Z,71.00
2023-02-16T15:31:24.079Z,71.96
2023-02-16T15:33:57.839Z,71.45
2023-02-16T15:36:40.300Z,72.05
2023-02-16T15:39:17.691Z,72.26
2023-02-16T15:41:50.506Z,72.68
2023-02-16T15:44:36.279Z,72.67
2023-02-16T15:47:11.996Z,72.82
2023-02-16T15:49:41.846Z,72.90
2023-02-16T15:52:16.986Z,73.05
2023-02-16T15:54:46.813Z,73.17
2023-02-16T15:57:32.126Z,73.64
2023-02-16T16:00:06.131Z,73.91
2023-02-16T16:02:47.598Z,73.96
2023-02-16T16:05:32.975Z,74.44
2023-02-16T16:08:01.656Z,74.48
2023-02-16T16:10:32.861Z,74.08
2023-02-16T16:13:07.294Z,74.92
2023-02-16T16:15:40.773Z,75.09
2023-02-16T16:18:30.775Z,75.10
2023-02-16T16:21:02.760Z,75.49
2023-02-16T16:23:30.790Z,75.81
2023-02-16T16:25:59.862Z,75.98
2023-02-16T16:28:27.692Z,76.40
2023-02-16T16:31:17.848Z,76.22
2023-02-16T16:33:54.885Z,76.49
2023-02-16T16:36:33.302Z,75.84
2023-02-16T16:39:16.297Z,77.13
2023-02-16T16:42:17.886Z,77.75
2023-02-16T16:45:02.474Z,77.94
2023-02-16T16:47:39.885Z,78.21
2023-02-16T16:50:29.487Z,78.11
2023-02-16T16:52:58.175Z,78.51
2023-02-16T16:55:33.776Z,78.33
2023-02-16T16:58:05.387Z,78.94
2023-02-16T17:00:36.608Z,78.94
2023-02-16T17:03:07.545Z,78.78
2023-02-16T17:05:38.236Z,79.14
2023-02-16T17:08:06.588Z,79.37
2023-02-16T17:10:37.649Z,79.79
2023-02-16T17:13:06.713Z,79.33
2023-02-16T17:15:40.283Z,79.75
2023-02-16T17:18:14.720Z,79.85
2023-02-16T17:20:43.268Z,79.81
2023-02-16T17:23:13.039Z,79.58
2023-02-16T17:25:41.045Z,80.35
2023-02-16T17:28:09.728Z,81.27
2023-02-16T17:30:38.112Z,80.32
2023-02-16T17:33:07.325Z,80.23
2023-02-16T17:35:37.636Z,80.50
2023-02-16T17:38:24.660Z,80.49
2023-02-16T17:40:56.822Z,80.13
2023-02-16T17:43:26.598Z,79.32
2023-02-16T17:45:55.714Z,79.48
2023-02-16T17:48:30.339Z,79.92
2023-02-16T17:50:58.812Z,79.53
2023-02-16T17:53:28.719Z,80.05
2023-02-16T17:55:57.679Z,79.81
2023-02-16T17:58:25.680Z,79.75
2023-02-16T18:00:53.731Z,80.24
2023-02-16T18:03:23.094Z,79.66
2023-02-16T18:05:51.300Z,79.94
2023-02-16T18:08:19.018Z,80.07
2023-02-16T18:10:50.733Z,80.03
2023-02-16T18:13:19.144Z,80.16
2023-02-16T18:15:49.397Z,80.08
2023-02-16T18:18:18.698Z,80.39
2023-02-16T18:20:46.926Z,79.97
2023-02-16T18:23:14.832Z,80.14
2023-02-16T18:25:44.091Z,80.66
2023-02-16T18:28:21.310Z,80.79
2023-02-16T18:30:50.602Z,80.95
2023-02-16T18:33:23.906Z,80.74
2023-02-16T18:35:54.112Z,81.18
2023-02-16T18:38:23.297Z,80.97
2023-02-16T18:40:53.536Z,80.77
2023-02-16T18:43:22.024Z,81.36
2023-02-16T18:45:50.410Z,81.14
2023-02-16T18:48:18.339Z,81.20
2023-02-16T18:50:46.156Z,81.40
2023-02-16T18:53:14.317Z,81.21
2023-02-16T18:55:42.056Z,81.00
2023-02-16T18:58:13.084Z,81.39
2023-02-16T19:00:41.373Z,81.67
2023-02-16T19:03:09.787Z,81.52
2023-02-16T19:05:37.815Z,81.73
2023-02-16T19:08:06.211Z,81.74
2023-02-16T19:10:34.208Z,81.96
2023-02-16T19:13:02.377Z,81.83
2023-02-16T19:15:30.186Z,81.97
2023-02-16T19:17:57.968Z,81.93
2023-02-16T19:20:25.926Z,81.88
2023-02-16T19:22:54.062Z,81.86
2023-02-16T19:25:23.818Z,82.12
2023-02-16T19:27:51.475Z,81.80
2023-02-16T19:30:21.604Z,82.12
2023-02-16T19:32:49.460Z,81.94
2023-02-16T19:35:17.880Z,81.78
2023-02-16T19:37:45.760Z,82.08
2023-02-16T19:40:13.979Z,81.84
2023-02-16T19:42:41.708Z,81.79
2023-02-16T19:45:09.530Z,81.96
2023-02-16T19:47:37.915Z,82.10
2023-02-16T19:50:07.339Z,81.99
2023-02-16T19:52:35.322Z,82.01
2023-02-16T19:55:03.150Z,82.07
2023-02-16T19:57:31.159Z,82.05
2023-02-16T19:59:58.972Z,81.98
2023-02-16T20:02:26.775Z,82.24
2023-02-16T20:04:55.089Z,82.34
2023-02-16T20:07:22.860Z,82.48
2023-02-16T20:09:50.709Z,82.43
2023-02-16T20:12:18.539Z,82.56
2023-02-16T20:14:46.290Z,82.05
2023-02-16T20:17:14.012Z,82.20
2023-02-16T20:19:42.417Z,82.54
2023-02-16T20:22:10.182Z,82.39
2023-02-16T20:24:38.276Z,82.35
2023-02-16T20:27:05.995Z,83.03
2023-02-16T20:29:33.785Z,82.61
2023-02-16T20:32:01.766Z,82.83
2023-02-16T20:34:29.576Z,82.94
2023-02-16T20:36:58.335Z,83.07
2023-02-16T20:39:26.115Z,82.92
2023-02-16T20:41:53.969Z,83.02
2023-02-16T20:44:22.771Z,82.93
2023-02-16T20:46:51.483Z,83.07
2023-02-16T20:49:19.258Z,82.74
2023-02-16T20:51:47.060Z,82.90
2023-02-16T20:54:14.791Z,83.06
2023-02-16T20:56:42.585Z,82.72
2023-02-16T20:59:11.509Z,83.00
2023-02-16T21:01:43.546Z,83.05
2023-02-16T21:04:12.336Z,82.95
2023-02-16T21:06:40.396Z,83.52
2023-02-16T21:09:10.332Z,82.92
2023-02-16T21:11:39.250Z,83.30
2023-02-16T21:14:08.454Z,83.19
2023-02-16T21:16:37.485Z,83.35
2023-02-16T21:19:11.736Z,83.14
2023-02-16T21:21:45.476Z,83.04
2023-02-16T21:24:13.293Z,83.18
2023-02-16T21:26:41.047Z,82.96
2023-02-16T21:29:08.794Z,83.31
2023-02-16T21:31:36.810Z,83.10
2023-02-16T21:34:04.722Z,83.49
2023-02-16T21:36:32.575Z,83.09
2023-02-16T21:39:02.821Z,83.11
2023-02-16T21:41:31.132Z,83.32
2023-02-16T21:44:09.653Z,83.00
2023-02-16T21:46:43.468Z,83.73
2023-02-16T21:49:16.654Z,83.48
2023-02-16T21:51:46.183Z,83.92
2023-02-16T21:54:17.256Z,83.55
2023-02-16T21:56:50.119Z,83.72
2023-02-16T21:59:19.576Z,83.96
2023-02-16T22:01:50.991Z,83.70
2023-02-16T22:04:22.270Z,83.91
2023-02-16T22:06:51.237Z,83.79
2023-02-16T22:09:21.795Z,83.69
2023-02-16T22:11:50.426Z,83.98
2023-02-16T22:14:18.454Z,83.73
2023-02-16T22:16:47.448Z,83.75
2023-02-16T22:19:17.627Z,83.93
2023-02-16T22:21:47.089Z,84.00
2023-02-16T22:24:17.173Z,83.74
2023-02-16T22:26:46.522Z,83.84
2023-02-16T22:29:14.406Z,83.84
2023-02-16T22:31:47.432Z,83.58
2023-02-16T22:34:18.688Z,83.97
2023-02-16T22:36:46.511Z,83.91
2023-02-16T22:39:16.035Z,84.01
2023-02-16T22:41:43.887Z,83.80
2023-02-16T22:44:12.311Z,83.99
2023-02-16T22:46:40.076Z,83.86
2023-02-16T22:49:09.729Z,83.96
2023-02-16T22:51:37.790Z,83.67
2023-02-16T22:54:06.299Z,83.48
2023-02-16T22:56:34.849Z,83.52
2023-02-16T22:59:02.570Z,83.77
2023-02-16T23:01:31.353Z,83.51
2023-02-16T23:04:00.586Z,83.35
2023-02-16T23:06:34.194Z,83.54
2023-02-16T23:09:14.515Z,83.66
2023-02-16T23:11:42.775Z,83.74
2023-02-16T23:14:16.603Z,83.78
2023-02-16T23:16:47.316Z,83.93
2023-02-16T23:19:19.380Z,83.52
2023-02-16T23:21:48.512Z,83.32
2023-02-16T23:24:20.833Z,83.66
2023-02-16T23:26:49.109Z,83.45
2023-02-16T23:29:17.111Z,83.18
2023-02-16T23:31:46.944Z,83.30
2023-02-16T23:34:15.658Z,83.45
2023-02-16T23:36:44.590Z,83.39
2023-02-16T23:39:15.910Z,83.08
2023-02-16T23:41:44.390Z,83.28
2023-02-16T23:44:13.997Z,83.59
2023-02-16T23:46:41.861Z,83.04
2023-02-16T23:49:09.650Z,83.17
2023-02-16T23:51:37.423Z,83.25
2023-02-16T23:54:05.344Z,83.08
2023-02-16T23:56:33.113Z,83.10
2023-02-16T23:59:01.251Z,83.04
